sensor_id;sensor_type;location;lat;lon;timestamp;temperature;humidity
17152;DHT22;8691;50.828;4.700;2023-02-17T00:00:59;11.60;99.90
17152;DHT22;8691;50.828;4.700;2023-02-17T00:03:26;11.50;99.90
17152;DHT22;8691;50.828;4.700;2023-02-17T00:05:53;11.50;99.90
17152;DHT22;8691;50.828;4.700;2023-02-17T00:08:21;11.50;99.90
17152;DHT22;8691;50.828;4.700;2023-02-17T00:10:55;11.50;99.90
17152;DHT22;8691;50.828;4.700;2023-02-17T00:13:21;11.60;99.90
17152;DHT22;8691;50.828;4.700;2023-02-17T00:15:48;11.60;99.90
17152;DHT22;8691;50.828;4.700;2023-02-17T00:18:15;11.60;99.90
17152;DHT22;8691;50.828;4.700;2023-02-17T00:20:42;11.60;99.90
17152;DHT22;8691;50.828;4.700;2023-02-17T00:23:09;11.60;99.90
17152;DHT22;8691;50.828;4.700;2023-02-17T00:25:38;11.60;99.90
17152;DHT22;8691;50.828;4.700;2023-02-17T00:28:05;11.60;99.90
17152;DHT22;8691;50.828;4.700;2023-02-17T00:30:32;11.60;99.90
17152;DHT22;8691;50.828;4.700;2023-02-17T00:32:59;11.60;99.90
17152;DHT22;8691;50.828;4.700;2023-02-17T00:35:26;11.70;99.90
17152;DHT22;8691;50.828;4.700;2023-02-17T00:37:53;11.70;99.90
17152;DHT22;8691;50.828;4.700;2023-02-17T00:40:20;11.70;99.90
17152;DHT22;8691;50.828;4.700;2023-02-17T00:42:46;11.60;99.90
17152;DHT22;8691;50.828;4.700;2023-02-17T00:45:13;11.70;99.90
17152;DHT22;8691;50.828;4.700;2023-02-17T00:47:40;11.70;99.90
17152;DHT22;8691;50.828;4.700;2023-02-17T00:50:07;11.60;99.90
17152;DHT22;8691;50.828;4.700;2023-02-17T00:52:34;11.70;99.90
17152;DHT22;8691;50.828;4.700;2023-02-17T00:55:01;11.70;99.90
17152;DHT22;8691;50.828;4.700;2023-02-17T00:57:29;11.80;99.90
17152;DHT22;8691;50.828;4.700;2023-02-17T00:59:55;11.70;99.90
17152;DHT22;8691;50.828;4.700;2023-02-17T01:02:22;11.80;99.90
17152;DHT22;8691;50.828;4.700;2023-02-17T01:04:49;11.70;99.90
17152;DHT22;8691;50.828;4.700;2023-02-17T01:07:16;11.70;99.90
17152;DHT22;8691;50.828;4.700;2023-02-17T01:09:43;11.70;99.90
17152;DHT22;8691;50.828;4.700;2023-02-17T01:12:10;11.60;99.90
17152;DHT22;8691;50.828;4.700;2023-02-17T01:14:37;11.60;99.90
17152;DHT22;8691;50.828;4.700;2023-02-17T01:17:04;11.60;99.90
17152;DHT22;8691;50.828;4.700;2023-02-17T01:19:31;11.60;99.90
17152;DHT22;8691;50.828;4.700;2023-02-17T01:21:59;11.60;99.90
17152;DHT22;8691;50.828;4.700;2023-02-17T01:24:26;11.60;99.90
17152;DHT22;8691;50.828;4.700;2023-02-17T01:26:53;11.60;99.90
17152;DHT22;8691;50.828;4.700;2023-02-17T01:29:20;11.70;99.90
17152;DHT22;8691;50.828;4.700;2023-02-17T01:31:46;11.60;99.90
17152;DHT22;8691;50.828;4.700;2023-02-17T01:34:13;11.60;99.90
17152;DHT22;8691;50.828;4.700;2023-02-17T01:36:41;11.50;99.90
17152;DHT22;8691;50.828;4.700;2023-02-17T01:39:08;11.50;99.90
17152;DHT22;8691;50.828;4.700;2023-02-17T01:41:35;11.60;99.90
17152;DHT22;8691;50.828;4.700;2023-02-17T01:46:42;11.40;99.90
17152;DHT22;8691;50.828;4.700;2023-02-17T01:49:19;11.40;99.90
17152;DHT22;8691;50.828;4.700;2023-02-17T01:51:43;11.30;99.90
17152;DHT22;8691;50.828;4.700;2023-02-17T01:54:17;11.40;99.90
17152;DHT22;8691;50.828;4.700;2023-02-17T01:56:42;11.40;99.90
17152;DHT22;8691;50.828;4.700;2023-02-17T01:59:13;11.60;99.90
17152;DHT22;8691;50.828;4.700;2023-02-17T02:01:38;11.50;99.90
17152;DHT22;8691;50.828;4.700;2023-02-17T02:04:05;11.50;99.90
17152;DHT22;8691;50.828;4.700;2023-02-17T02:06:32;11.40;99.90
17152;DHT22;8691;50.828;4.700;2023-02-17T02:09:02;11.40;99.90
17152;DHT22;8691;50.828;4.700;2023-02-17T02:11:25;11.30;99.90
17152;DHT22;8691;50.828;4.700;2023-02-17T02:13:52;11.30;99.90
17152;DHT22;8691;50.828;4.700;2023-02-17T02:16:26;11.30;99.90
17152;DHT22;8691;50.828;4.700;2023-02-17T02:19:03;11.20;99.90
17152;DHT22;8691;50.828;4.700;2023-02-17T02:22:10;11.10;99.90
17152;DHT22;8691;50.828;4.700;2023-02-17T02:30:39;11.00;99.90
17152;DHT22;8691;50.828;4.700;2023-02-17T02:35:39;10.90;99.90
17152;DHT22;8691;50.828;4.700;2023-02-17T02:38:10;11.00;99.90
17152;DHT22;8691;50.828;4.700;2023-02-17T02:40:33;11.10;99.90
17152;DHT22;8691;50.828;4.700;2023-02-17T02:42:59;11.00;99.90
17152;DHT22;8691;50.828;4.700;2023-02-17T02:45:26;11.00;99.90
17152;DHT22;8691;50.828;4.700;2023-02-17T02:47:56;11.00;99.90
17152;DHT22;8691;50.828;4.700;2023-02-17T02:53:44;10.90;99.90
17152;DHT22;8691;50.828;4.700;2023-02-17T02:59:30;10.80;99.90
17152;DHT22;8691;50.828;4.700;2023-02-17T03:02:10;10.80;99.90
17152;DHT22;8691;50.828;4.700;2023-02-17T03:04:42;10.80;99.90
17152;DHT22;8691;50.828;4.700;2023-02-17T03:07:27;10.80;99.90
17152;DHT22;8691;50.828;4.700;2023-02-17T03:09:54;10.90;99.90
17152;DHT22;8691;50.828;4.700;2023-02-17T03:12:19;10.80;99.90
17152;DHT22;8691;50.828;4.700;2023-02-17T03:14:46;10.80;99.90
17152;DHT22;8691;50.828;4.700;2023-02-17T03:17:12;10.70;99.90
17152;DHT22;8691;50.828;4.700;2023-02-17T03:19:40;10.80;99.90
17152;DHT22;8691;50.828;4.700;2023-02-17T03:22:20;10.80;99.90
17152;DHT22;8691;50.828;4.700;2023-02-17T03:24:43;10.70;99.90
17152;DHT22;8691;50.828;4.700;2023-02-17T03:27:10;10.80;99.90
17152;DHT22;8691;50.828;4.700;2023-02-17T03:29:37;10.80;99.90
17152;DHT22;8691;50.828;4.700;2023-02-17T03:32:04;10.80;99.90
17152;DHT22;8691;50.828;4.700;2023-02-17T03:34:30;10.80;99.90
17152;DHT22;8691;50.828;4.700;2023-02-17T03:36:57;10.70;99.90
17152;DHT22;8691;50.828;4.700;2023-02-17T03:39:24;10.70;99.90
17152;DHT22;8691;50.828;4.700;2023-02-17T03:41:51;10.70;99.90
17152;DHT22;8691;50.828;4.700;2023-02-17T03:44:18;10.80;99.90
17152;DHT22;8691;50.828;4.700;2023-02-17T03:46:45;10.80;99.90
17152;DHT22;8691;50.828;4.700;2023-02-17T03:49:11;10.70;99.90
17152;DHT22;8691;50.828;4.700;2023-02-17T03:51:38;10.70;99.90
17152;DHT22;8691;50.828;4.700;2023-02-17T03:54:05;10.80;99.90
17152;DHT22;8691;50.828;4.700;2023-02-17T03:56:32;10.80;99.90
17152;DHT22;8691;50.828;4.700;2023-02-17T03:58:59;10.90;99.90
17152;DHT22;8691;50.828;4.700;2023-02-17T04:01:26;10.90;99.90
17152;DHT22;8691;50.828;4.700;2023-02-17T04:03:53;10.90;99.90
17152;DHT22;8691;50.828;4.700;2023-02-17T04:06:21;10.80;99.90
17152;DHT22;8691;50.828;4.700;2023-02-17T04:08:47;10.80;99.90
17152;DHT22;8691;50.828;4.700;2023-02-17T04:11:14;10.80;99.90
17152;DHT22;8691;50.828;4.700;2023-02-17T04:13:41;10.80;99.90
17152;DHT22;8691;50.828;4.700;2023-02-17T04:16:08;10.80;99.90
17152;DHT22;8691;50.828;4.700;2023-02-17T04:18:35;10.80;99.90
17152;DHT22;8691;50.828;4.700;2023-02-17T04:21:02;10.90;99.90
17152;DHT22;8691;50.828;4.700;2023-02-17T04:23:29;10.80;99.90
17152;DHT22;8691;50.828;4.700;2023-02-17T04:25:57;10.90;99.90
17152;DHT22;8691;50.828;4.700;2023-02-17T04:28:24;10.90;99.90
17152;DHT22;8691;50.828;4.700;2023-02-17T04:30:51;10.90;99.90
17152;DHT22;8691;50.828;4.700;2023-02-17T04:33:18;10.90;99.90
17152;DHT22;8691;50.828;4.700;2023-02-17T04:35:45;10.90;99.90
17152;DHT22;8691;50.828;4.700;2023-02-17T04:38:12;10.80;99.90
17152;DHT22;8691;50.828;4.700;2023-02-17T04:40:39;10.90;99.90
17152;DHT22;8691;50.828;4.700;2023-02-17T04:43:06;11.00;99.90
17152;DHT22;8691;50.828;4.700;2023-02-17T04:45:34;10.90;99.90
17152;DHT22;8691;50.828;4.700;2023-02-17T04:48:00;10.90;99.90
17152;DHT22;8691;50.828;4.700;2023-02-17T04:50:27;11.00;99.90
17152;DHT22;8691;50.828;4.700;2023-02-17T04:52:54;11.00;99.90
17152;DHT22;8691;50.828;4.700;2023-02-17T04:55:20;10.90;99.90
17152;DHT22;8691;50.828;4.700;2023-02-17T04:57:47;11.00;99.90
17152;DHT22;8691;50.828;4.700;2023-02-17T05:00:14;11.00;99.90
17152;DHT22;8691;50.828;4.700;2023-02-17T05:02:41;11.00;99.90
17152;DHT22;8691;50.828;4.700;2023-02-17T05:05:08;11.00;99.90
17152;DHT22;8691;50.828;4.700;2023-02-17T05:07:35;10.90;99.90
17152;DHT22;8691;50.828;4.700;2023-02-17T05:10:02;10.90;99.90
17152;DHT22;8691;50.828;4.700;2023-02-17T05:12:29;10.90;99.90
17152;DHT22;8691;50.828;4.700;2023-02-17T05:14:56;10.90;99.90
17152;DHT22;8691;50.828;4.700;2023-02-17T05:17:23;11.10;99.90
17152;DHT22;8691;50.828;4.700;2023-02-17T05:19:50;10.90;99.90
17152;DHT22;8691;50.828;4.700;2023-02-17T05:22:16;10.90;99.90
17152;DHT22;8691;50.828;4.700;2023-02-17T05:24:43;10.90;99.90
17152;DHT22;8691;50.828;4.700;2023-02-17T05:27:11;10.90;99.90
17152;DHT22;8691;50.828;4.700;2023-02-17T05:29:39;10.90;99.90
17152;DHT22;8691;50.828;4.700;2023-02-17T05:32:06;10.90;99.90
17152;DHT22;8691;50.828;4.700;2023-02-17T05:34:32;10.90;99.90
17152;DHT22;8691;50.828;4.700;2023-02-17T05:36:59;10.90;99.90
17152;DHT22;8691;50.828;4.700;2023-02-17T05:39:26;10.90;99.90
17152;DHT22;8691;50.828;4.700;2023-02-17T05:41:53;10.90;99.90
17152;DHT22;8691;50.828;4.700;2023-02-17T05:44:20;10.90;99.90
17152;DHT22;8691;50.828;4.700;2023-02-17T05:46:47;10.90;99.90
17152;DHT22;8691;50.828;4.700;2023-02-17T05:49:14;10.90;99.90
17152;DHT22;8691;50.828;4.700;2023-02-17T05:51:42;10.90;99.90
17152;DHT22;8691;50.828;4.700;2023-02-17T05:54:09;10.90;99.90
17152;DHT22;8691;50.828;4.700;2023-02-17T05:56:36;10.90;99.90
17152;DHT22;8691;50.828;4.700;2023-02-17T05:59:03;10.90;99.90
17152;DHT22;8691;50.828;4.700;2023-02-17T06:01:30;10.90;99.90
17152;DHT22;8691;50.828;4.700;2023-02-17T06:03:57;11.00;99.90
17152;DHT22;8691;50.828;4.700;2023-02-17T06:06:24;10.90;99.90
17152;DHT22;8691;50.828;4.700;2023-02-17T06:08:51;10.90;99.90
17152;DHT22;8691;50.828;4.700;2023-02-17T06:11:19;10.90;99.90
17152;DHT22;8691;50.828;4.700;2023-02-17T06:13:45;10.90;99.90
17152;DHT22;8691;50.828;4.700;2023-02-17T06:16:12;10.80;99.90
17152;DHT22;8691;50.828;4.700;2023-02-17T06:18:39;10.80;99.90
17152;DHT22;8691;50.828;4.700;2023-02-17T06:21:07;10.90;99.90
17152;DHT22;8691;50.828;4.700;2023-02-17T06:23:34;10.80;99.90
17152;DHT22;8691;50.828;4.700;2023-02-17T06:26:01;10.80;99.90
17152;DHT22;8691;50.828;4.700;2023-02-17T06:28:28;10.80;99.90
17152;DHT22;8691;50.828;4.700;2023-02-17T06:30:55;10.80;99.90
17152;DHT22;8691;50.828;4.700;2023-02-17T06:33:22;10.80;99.90
17152;DHT22;8691;50.828;4.700;2023-02-17T06:35:49;10.80;99.90
17152;DHT22;8691;50.828;4.700;2023-02-17T06:38:16;10.80;99.90
17152;DHT22;8691;50.828;4.700;2023-02-17T06:40:43;10.80;99.90
17152;DHT22;8691;50.828;4.700;2023-02-17T06:43:09;10.90;99.90
17152;DHT22;8691;50.828;4.700;2023-02-17T06:45:36;10.90;99.90
17152;DHT22;8691;50.828;4.700;2023-02-17T06:48:03;10.90;99.90
17152;DHT22;8691;50.828;4.700;2023-02-17T06:50:30;11.00;99.90
17152;DHT22;8691;50.828;4.700;2023-02-17T06:52:57;10.90;99.90
17152;DHT22;8691;50.828;4.700;2023-02-17T06:55:24;10.90;99.90
17152;DHT22;8691;50.828;4.700;2023-02-17T06:57:52;10.90;99.90
17152;DHT22;8691;50.828;4.700;2023-02-17T07:00:20;10.90;99.90
17152;DHT22;8691;50.828;4.700;2023-02-17T07:02:47;10.90;99.90
17152;DHT22;8691;50.828;4.700;2023-02-17T07:05:13;10.90;99.90
17152;DHT22;8691;50.828;4.700;2023-02-17T07:07:40;11.00;99.90
17152;DHT22;8691;50.828;4.700;2023-02-17T07:10:07;11.00;99.90
17152;DHT22;8691;50.828;4.700;2023-02-17T07:12:35;11.00;99.90
17152;DHT22;8691;50.828;4.700;2023-02-17T07:15:02;11.00;99.90
17152;DHT22;8691;50.828;4.700;2023-02-17T07:17:29;11.10;99.90
17152;DHT22;8691;50.828;4.700;2023-02-17T07:19:56;11.00;99.90
17152;DHT22;8691;50.828;4.700;2023-02-17T07:22:24;11.10;99.90
17152;DHT22;8691;50.828;4.700;2023-02-17T07:24:51;11.10;99.90
17152;DHT22;8691;50.828;4.700;2023-02-17T07:27:18;11.20;99.90
17152;DHT22;8691;50.828;4.700;2023-02-17T07:29:45;11.10;99.90
17152;DHT22;8691;50.828;4.700;2023-02-17T07:32:12;11.20;99.90
17152;DHT22;8691;50.828;4.700;2023-02-17T07:34:39;11.20;99.90
17152;DHT22;8691;50.828;4.700;2023-02-17T07:37:06;11.20;99.90
17152;DHT22;8691;50.828;4.700;2023-02-17T07:39:33;11.20;99.90
17152;DHT22;8691;50.828;4.700;2023-02-17T07:42:00;11.20;99.90
17152;DHT22;8691;50.828;4.700;2023-02-17T07:44:26;11.20;99.90
17152;DHT22;8691;50.828;4.700;2023-02-17T07:46:53;11.30;99.90
17152;DHT22;8691;50.828;4.700;2023-02-17T07:49:20;11.40;99.90
17152;DHT22;8691;50.828;4.700;2023-02-17T07:51:47;11.40;99.90
17152;DHT22;8691;50.828;4.700;2023-02-17T07:54:15;11.40;99.90
17152;DHT22;8691;50.828;4.700;2023-02-17T07:56:41;11.40;99.90
17152;DHT22;8691;50.828;4.700;2023-02-17T07:59:11;11.50;99.90
17152;DHT22;8691;50.828;4.700;2023-02-17T08:01:38;11.50;99.90
17152;DHT22;8691;50.828;4.700;2023-02-17T08:04:05;11.50;99.90
17152;DHT22;8691;50.828;4.700;2023-02-17T08:06:32;11.60;99.90
17152;DHT22;8691;50.828;4.700;2023-02-17T08:09:00;11.70;99.90
17152;DHT22;8691;50.828;4.700;2023-02-17T08:11:44;11.70;99.90
17152;DHT22;8691;50.828;4.700;2023-02-17T08:14:29;11.80;99.90
17152;DHT22;8691;50.828;4.700;2023-02-17T08:16:56;11.70;99.90
17152;DHT22;8691;50.828;4.700;2023-02-17T08:19:23;11.80;99.90
17152;DHT22;8691;50.828;4.700;2023-02-17T08:21:50;11.70;99.90
17152;DHT22;8691;50.828;4.700;2023-02-17T08:24:17;11.80;99.90
17152;DHT22;8691;50.828;4.700;2023-02-17T08:26:43;11.90;99.90
17152;DHT22;8691;50.828;4.700;2023-02-17T08:29:11;11.80;99.90
17152;DHT22;8691;50.828;4.700;2023-02-17T08:31:38;11.80;99.90
17152;DHT22;8691;50.828;4.700;2023-02-17T08:34:07;11.80;99.90
17152;DHT22;8691;50.828;4.700;2023-02-17T08:36:32;11.90;99.90
17152;DHT22;8691;50.828;4.700;2023-02-17T08:39:00;12.10;99.90
17152;DHT22;8691;50.828;4.700;2023-02-17T08:41:28;12.00;99.90
17152;DHT22;8691;50.828;4.700;2023-02-17T08:43:58;12.20;99.90
17152;DHT22;8691;50.828;4.700;2023-02-17T08:46:27;12.20;99.90
17152;DHT22;8691;50.828;4.700;2023-02-17T08:48:52;12.30;99.90
17152;DHT22;8691;50.828;4.700;2023-02-17T08:51:19;12.50;99.90
17152;DHT22;8691;50.828;4.700;2023-02-17T08:53:47;12.60;99.90
17152;DHT22;8691;50.828;4.700;2023-02-17T08:56:14;12.60;99.90
17152;DHT22;8691;50.828;4.700;2023-02-17T08:58:41;12.60;99.90
17152;DHT22;8691;50.828;4.700;2023-02-17T09:01:08;12.70;99.90
17152;DHT22;8691;50.828;4.700;2023-02-17T09:03:36;12.70;99.90
17152;DHT22;8691;50.828;4.700;2023-02-17T09:06:02;12.70;99.90
17152;DHT22;8691;50.828;4.700;2023-02-17T09:08:29;12.80;99.90
17152;DHT22;8691;50.828;4.700;2023-02-17T09:10:56;13.00;99.90
17152;DHT22;8691;50.828;4.700;2023-02-17T09:13:23;13.20;99.90
17152;DHT22;8691;50.828;4.700;2023-02-17T09:15:49;13.30;99.90
17152;DHT22;8691;50.828;4.700;2023-02-17T09:18:16;13.70;99.90
17152;DHT22;8691;50.828;4.700;2023-02-17T09:20:43;13.70;99.90
17152;DHT22;8691;50.828;4.700;2023-02-17T09:23:10;13.80;99.90
17152;DHT22;8691;50.828;4.700;2023-02-17T09:25:38;14.20;99.90
17152;DHT22;8691;50.828;4.700;2023-02-17T09:28:05;14.10;99.90
17152;DHT22;8691;50.828;4.700;2023-02-17T09:30:31;14.30;99.90
17152;DHT22;8691;50.828;4.700;2023-02-17T09:32:58;14.90;99.90
17152;DHT22;8691;50.828;4.700;2023-02-17T09:35:25;15.10;99.90
17152;DHT22;8691;50.828;4.700;2023-02-17T09:37:52;15.40;99.90
17152;DHT22;8691;50.828;4.700;2023-02-17T09:40:26;15.10;99.90
17152;DHT22;8691;50.828;4.700;2023-02-17T09:42:50;15.00;99.90
17152;DHT22;8691;50.828;4.700;2023-02-17T09:45:26;15.10;99.90
17152;DHT22;8691;50.828;4.700;2023-02-17T09:47:54;15.10;99.90
17152;DHT22;8691;50.828;4.700;2023-02-17T09:50:31;15.10;99.90
17152;DHT22;8691;50.828;4.700;2023-02-17T09:55:53;15.80;99.90
17152;DHT22;8691;50.828;4.700;2023-02-17T09:58:26;16.00;99.90
17152;DHT22;8691;50.828;4.700;2023-02-17T10:00:55;16.10;99.90
17152;DHT22;8691;50.828;4.700;2023-02-17T10:03:29;16.60;99.90
17152;DHT22;8691;50.828;4.700;2023-02-17T10:05:59;16.90;99.90
17152;DHT22;8691;50.828;4.700;2023-02-17T10:08:22;16.90;99.90
17152;DHT22;8691;50.828;4.700;2023-02-17T10:11:03;16.50;99.90
17152;DHT22;8691;50.828;4.700;2023-02-17T10:13:31;16.20;99.90
17152;DHT22;8691;50.828;4.700;2023-02-17T10:15:58;16.00;99.90
17152;DHT22;8691;50.828;4.700;2023-02-17T10:18:34;16.00;99.90
17152;DHT22;8691;50.828;4.700;2023-02-17T10:20:52;15.80;99.90
17152;DHT22;8691;50.828;4.700;2023-02-17T10:23:23;15.60;99.90
17152;DHT22;8691;50.828;4.700;2023-02-17T10:31:09;15.20;99.90
17152;DHT22;8691;50.828;4.700;2023-02-17T10:33:36;15.20;99.90
17152;DHT22;8691;50.828;4.700;2023-02-17T10:41:21;15.50;99.90
17152;DHT22;8691;50.828;4.700;2023-02-17T10:43:47;15.60;99.90
17152;DHT22;8691;50.828;4.700;2023-02-17T10:46:14;15.60;99.90
17152;DHT22;8691;50.828;4.700;2023-02-17T10:48:48;15.60;99.90
17152;DHT22;8691;50.828;4.700;2023-02-17T10:51:14;15.80;99.90
17152;DHT22;8691;50.828;4.700;2023-02-17T10:53:41;16.00;99.90
17152;DHT22;8691;50.828;4.700;2023-02-17T10:56:12;16.10;99.90
17152;DHT22;8691;50.828;4.700;2023-02-17T10:58:42;16.30;99.90
17152;DHT22;8691;50.828;4.700;2023-02-17T11:01:04;16.50;99.90
17152;DHT22;8691;50.828;4.700;2023-02-17T11:03:32;16.60;99.90
17152;DHT22;8691;50.828;4.700;2023-02-17T11:05:59;16.40;99.90
17152;DHT22;8691;50.828;4.700;2023-02-17T11:08:38;16.60;99.90
17152;DHT22;8691;50.828;4.700;2023-02-17T11:11:06;16.60;99.90
17152;DHT22;8691;50.828;4.700;2023-02-17T11:13:36;16.70;99.90
17152;DHT22;8691;50.828;4.700;2023-02-17T11:16:02;16.70;99.90
17152;DHT22;8691;50.828;4.700;2023-02-17T11:18:33;16.70;99.90
17152;DHT22;8691;50.828;4.700;2023-02-17T11:21:04;16.60;99.90
17152;DHT22;8691;50.828;4.700;2023-02-17T11:23:28;16.80;99.90
17152;DHT22;8691;50.828;4.700;2023-02-17T11:25:56;16.60;99.90
17152;DHT22;8691;50.828;4.700;2023-02-17T11:28:22;16.50;99.90
17152;DHT22;8691;50.828;4.700;2023-02-17T11:30:49;16.50;99.90
17152;DHT22;8691;50.828;4.700;2023-02-17T11:33:19;16.60;99.90
17152;DHT22;8691;50.828;4.700;2023-02-17T11:35:51;16.80;99.90
17152;DHT22;8691;50.828;4.700;2023-02-17T11:38:16;16.70;99.90
17152;DHT22;8691;50.828;4.700;2023-02-17T11:40:50;16.80;99.90
17152;DHT22;8691;50.828;4.700;2023-02-17T11:43:14;16.80;99.90
17152;DHT22;8691;50.828;4.700;2023-02-17T11:45:44;16.90;99.90
17152;DHT22;8691;50.828;4.700;2023-02-17T11:56:19;16.10;99.90
17152;DHT22;8691;50.828;4.700;2023-02-17T12:01:45;16.20;99.90
17152;DHT22;8691;50.828;4.700;2023-02-17T12:15:02;16.50;99.90
17152;DHT22;8691;50.828;4.700;2023-02-17T12:22:33;16.30;99.90
17152;DHT22;8691;50.828;4.700;2023-02-17T12:27:47;16.80;99.90
17152;DHT22;8691;50.828;4.700;2023-02-17T12:35:26;16.10;99.90
17152;DHT22;8691;50.828;4.700;2023-02-17T12:37:59;16.10;99.90
17152;DHT22;8691;50.828;4.700;2023-02-17T12:40:36;15.80;99.90
17152;DHT22;8691;50.828;4.700;2023-02-17T12:45:46;15.90;99.90
17152;DHT22;8691;50.828;4.700;2023-02-17T12:48:23;16.00;99.90
17152;DHT22;8691;50.828;4.700;2023-02-17T12:56:01;15.80;99.90
17152;DHT22;8691;50.828;4.700;2023-02-17T12:58:27;15.80;99.90
17152;DHT22;8691;50.828;4.700;2023-02-17T13:01:04;15.70;99.90
17152;DHT22;8691;50.828;4.700;2023-02-17T13:03:32;15.80;99.90
17152;DHT22;8691;50.828;4.700;2023-02-17T13:06:10;15.80;99.90
17152;DHT22;8691;50.828;4.700;2023-02-17T13:08:38;15.60;99.90
17152;DHT22;8691;50.828;4.700;2023-02-17T13:11:12;15.60;99.90
17152;DHT22;8691;50.828;4.700;2023-02-17T13:13:37;15.60;99.90
17152;DHT22;8691;50.828;4.700;2023-02-17T13:16:05;15.50;99.90
17152;DHT22;8691;50.828;4.700;2023-02-17T13:18:35;15.30;99.90
17152;DHT22;8691;50.828;4.700;2023-02-17T13:21:14;15.30;99.90
17152;DHT22;8691;50.828;4.700;2023-02-17T13:23:35;15.40;99.90
17152;DHT22;8691;50.828;4.700;2023-02-17T13:28:46;15.30;99.90
17152;DHT22;8691;50.828;4.700;2023-02-17T13:31:18;15.40;99.90
17152;DHT22;8691;50.828;4.700;2023-02-17T13:33:45;15.40;99.90
17152;DHT22;8691;50.828;4.700;2023-02-17T13:36:11;15.20;99.90
17152;DHT22;8691;50.828;4.700;2023-02-17T13:38:37;15.20;99.90
17152;DHT22;8691;50.828;4.700;2023-02-17T13:41:05;15.10;99.90
17152;DHT22;8691;50.828;4.700;2023-02-17T13:43:39;14.90;99.90
17152;DHT22;8691;50.828;4.700;2023-02-17T13:46:01;14.90;99.90
17152;DHT22;8691;50.828;4.700;2023-02-17T13:48:28;14.80;99.90
17152;DHT22;8691;50.828;4.700;2023-02-17T13:50:55;14.60;99.90
17152;DHT22;8691;50.828;4.700;2023-02-17T13:53:23;14.70;99.90
17152;DHT22;8691;50.828;4.700;2023-02-17T13:55:48;14.70;99.90
17152;DHT22;8691;50.828;4.700;2023-02-17T13:58:19;14.80;99.90
17152;DHT22;8691;50.828;4.700;2023-02-17T14:00:42;15.00;99.90
17152;DHT22;8691;50.828;4.700;2023-02-17T14:05:45;15.00;99.90
17152;DHT22;8691;50.828;4.700;2023-02-17T14:08:12;15.20;99.90
17152;DHT22;8691;50.828;4.700;2023-02-17T14:10:38;15.00;99.90
17152;DHT22;8691;50.828;4.700;2023-02-17T14:13:07;14.90;99.90
17152;DHT22;8691;50.828;4.700;2023-02-17T14:15:32;14.90;99.90
17152;DHT22;8691;50.828;4.700;2023-02-17T14:17:59;15.00;99.90
17152;DHT22;8691;50.828;4.700;2023-02-17T14:20:32;15.00;99.90
17152;DHT22;8691;50.828;4.700;2023-02-17T14:23:02;15.00;99.90
17152;DHT22;8691;50.828;4.700;2023-02-17T14:25:26;15.00;99.90
17152;DHT22;8691;50.828;4.700;2023-02-17T14:27:52;15.10;99.90
17152;DHT22;8691;50.828;4.700;2023-02-17T14:30:34;15.10;99.90
17152;DHT22;8691;50.828;4.700;2023-02-17T14:33:01;15.10;99.90
17152;DHT22;8691;50.828;4.700;2023-02-17T14:35:27;15.20;99.90
17152;DHT22;8691;50.828;4.700;2023-02-17T14:37:54;15.10;99.90
17152;DHT22;8691;50.828;4.700;2023-02-17T14:40:22;15.00;99.90
17152;DHT22;8691;50.828;4.700;2023-02-17T14:42:48;14.90;99.90
17152;DHT22;8691;50.828;4.700;2023-02-17T14:45:15;14.70;99.90
17152;DHT22;8691;50.828;4.700;2023-02-17T14:47:42;14.60;99.90
17152;DHT22;8691;50.828;4.700;2023-02-17T14:50:09;14.50;99.90
17152;DHT22;8691;50.828;4.700;2023-02-17T14:52:40;14.40;99.90
17152;DHT22;8691;50.828;4.700;2023-02-17T14:55:09;14.40;99.90
17152;DHT22;8691;50.828;4.700;2023-02-17T14:57:32;14.30;99.90
17152;DHT22;8691;50.828;4.700;2023-02-17T14:59:59;14.30;99.90
17152;DHT22;8691;50.828;4.700;2023-02-17T15:02:26;14.10;99.90
17152;DHT22;8691;50.828;4.700;2023-02-17T15:04:53;14.00;99.90
17152;DHT22;8691;50.828;4.700;2023-02-17T15:44:01;13.40;99.90
17152;DHT22;8691;50.828;4.700;2023-02-17T15:46:29;13.10;99.90
17152;DHT22;8691;50.828;4.700;2023-02-17T15:48:55;13.20;99.90
17152;DHT22;8691;50.828;4.700;2023-02-17T15:51:21;13.20;99.90
17152;DHT22;8691;50.828;4.700;2023-02-17T15:53:48;13.00;99.90
17152;DHT22;8691;50.828;4.700;2023-02-17T15:56:19;12.90;99.90
17152;DHT22;8691;50.828;4.700;2023-02-17T15:58:44;12.80;99.90
17152;DHT22;8691;50.828;4.700;2023-02-17T16:01:32;12.80;99.90
17152;DHT22;8691;50.828;4.700;2023-02-17T16:03:37;12.80;99.90
17152;DHT22;8691;50.828;4.700;2023-02-17T16:06:04;12.70;99.90
17152;DHT22;8691;50.828;4.700;2023-02-17T16:08:31;12.60;99.90
17152;DHT22;8691;50.828;4.700;2023-02-17T16:10:57;12.70;99.90
17152;DHT22;8691;50.828;4.700;2023-02-17T16:13:24;12.60;99.90
17152;DHT22;8691;50.828;4.700;2023-02-17T16:15:51;12.50;99.90
17152;DHT22;8691;50.828;4.700;2023-02-17T16:18:21;12.50;99.90
17152;DHT22;8691;50.828;4.700;2023-02-17T16:20:47;12.40;99.90
17152;DHT22;8691;50.828;4.700;2023-02-17T16:23:13;12.40;99.90
17152;DHT22;8691;50.828;4.700;2023-02-17T16:25:41;12.30;99.90
17152;DHT22;8691;50.828;4.700;2023-02-17T16:28:08;12.10;99.90
17152;DHT22;8691;50.828;4.700;2023-02-17T16:30:33;12.00;99.90
17152;DHT22;8691;50.828;4.700;2023-02-17T16:33:00;12.00;99.90
17152;DHT22;8691;50.828;4.700;2023-02-17T16:35:29;11.90;99.90
17152;DHT22;8691;50.828;4.700;2023-02-17T16:37:53;11.80;99.90
17152;DHT22;8691;50.828;4.700;2023-02-17T16:40:20;11.60;99.90
17152;DHT22;8691;50.828;4.700;2023-02-17T16:42:46;11.50;99.90
17152;DHT22;8691;50.828;4.700;2023-02-17T16:45:14;11.40;99.90
17152;DHT22;8691;50.828;4.700;2023-02-17T16:47:41;11.40;99.90
17152;DHT22;8691;50.828;4.700;2023-02-17T16:50:07;11.40;99.90
17152;DHT22;8691;50.828;4.700;2023-02-17T16:52:33;11.40;99.90
17152;DHT22;8691;50.828;4.700;2023-02-17T16:55:00;11.30;99.90
17152;DHT22;8691;50.828;4.700;2023-02-17T16:57:26;11.30;99.90
17152;DHT22;8691;50.828;4.700;2023-02-17T16:59:53;11.20;99.90
17152;DHT22;8691;50.828;4.700;2023-02-17T17:02:20;11.20;99.90
17152;DHT22;8691;50.828;4.700;2023-02-17T17:04:46;11.20;99.90
17152;DHT22;8691;50.828;4.700;2023-02-17T17:07:13;11.20;99.90
17152;DHT22;8691;50.828;4.700;2023-02-17T17:09:40;11.10;99.90
17152;DHT22;8691;50.828;4.700;2023-02-17T17:12:08;11.10;99.90
17152;DHT22;8691;50.828;4.700;2023-02-17T17:14:34;11.10;99.90
17152;DHT22;8691;50.828;4.700;2023-02-17T17:17:01;11.10;99.90
17152;DHT22;8691;50.828;4.700;2023-02-17T17:19:28;11.00;99.90
17152;DHT22;8691;50.828;4.700;2023-02-17T17:21:55;11.00;99.90
17152;DHT22;8691;50.828;4.700;2023-02-17T17:24:22;11.10;99.90
17152;DHT22;8691;50.828;4.700;2023-02-17T17:26:49;11.00;99.90
17152;DHT22;8691;50.828;4.700;2023-02-17T17:29:17;11.00;99.90
17152;DHT22;8691;50.828;4.700;2023-02-17T17:31:43;11.00;99.90
17152;DHT22;8691;50.828;4.700;2023-02-17T17:34:10;11.00;99.90
17152;DHT22;8691;50.828;4.700;2023-02-17T17:36:38;11.00;99.90
17152;DHT22;8691;50.828;4.700;2023-02-17T17:39:05;10.90;99.90
17152;DHT22;8691;50.828;4.700;2023-02-17T17:41:31;10.90;99.90
17152;DHT22;8691;50.828;4.700;2023-02-17T17:43:58;11.00;99.90